East Selah, Washington
Current Conditions -  °F | °C
As of 1:56 AM on Friday 31 Oct 2014 (Local Time) from K1YT Reporting Station
Rain Showers Rain Showers  
Wind Chill: 48°   Ceiling: 7000
Heat Index: 50°   Visibility: 2.5mi
Dew Point: 49°   Wind: 6mph
Humidity: 95%   Direction: 220°SW
Pressure: 29.78"   Gusts: NA
Location:  46.6267°N, 120.424°W
Report Text: K1YT 310856Z AUTO 22005KT 2 1/2SM -SHRA BR BKN070 10/09 A2978 RMK AO2 VIS 2 1/2V12 SLPNO P0004 60010 T00990092 58011
Loading
Personal Weather Stations






























Interactive Weather Map
Tropical Storm Tracking
New forecast layout! Learn more

10-Day Weather Forecast

Advertisements
Track Severe Weather on mobile